createdAt,value
2018-07-28T00:02:22.408Z,40.90
2018-07-28T00:04:49.967Z,41.00
2018-07-28T00:09:45.727Z,41.40
2018-07-28T00:12:13.275Z,41.40
2018-07-28T00:14:41.622Z,41.90
2018-07-28T00:17:09.424Z,41.90
2018-07-28T00:19:36.932Z,41.30
2018-07-28T00:22:05.120Z,41.40
2018-07-28T00:24:33.190Z,41.70
2018-07-28T00:27:00.872Z,42.30
2018-07-28T00:29:28.963Z,41.90
2018-07-28T00:31:56.571Z,42.50
2018-07-28T00:34:24.086Z,42.50
2018-07-28T00:36:52.264Z,42.50
2018-07-28T00:39:19.748Z,42.10
2018-07-28T00:41:47.378Z,42.30
2018-07-28T00:44:16.618Z,42.80
2018-07-28T00:46:44.219Z,42.70
2018-07-28T00:49:11.751Z,42.90
2018-07-28T00:51:39.389Z,42.90
2018-07-28T00:54:06.895Z,42.90
2018-07-28T00:56:34.458Z,43.50
2018-07-28T00:59:01.975Z,44.00
2018-07-28T01:03:57.042Z,42.50
2018-07-28T01:11:20.426Z,42.80
2018-07-28T01:13:48.017Z,43.40
2018-07-28T01:16:16.491Z,43.40
2018-07-28T01:18:44.461Z,42.80
2018-07-28T01:21:12.048Z,43.30
2018-07-28T01:26:07.035Z,42.80
2018-07-28T01:28:35.940Z,42.90
2018-07-28T01:33:32.008Z,43.40
2018-07-28T01:36:00.553Z,43.40
2018-07-28T01:38:28.910Z,43.60
2018-07-28T01:40:56.814Z,43.60
2018-07-28T01:43:25.276Z,43.10
2018-07-28T01:45:53.459Z,42.70
2018-07-28T01:48:21.631Z,43.70
2018-07-28T01:50:51.687Z,43.90
2018-07-28T01:53:21.237Z,44.60
2018-07-28T01:55:50.649Z,45.10
2018-07-28T01:58:19.243Z,44.40
2018-07-28T02:00:47.929Z,44.20
2018-07-28T02:03:17.159Z,44.50
2018-07-28T02:05:45.644Z,44.50
2018-07-28T02:08:14.068Z,44.20
2018-07-28T02:10:42.358Z,44.20
2018-07-28T02:13:11.126Z,43.90
2018-07-28T02:15:38.788Z,44.20
2018-07-28T02:18:06.936Z,45.30
2018-07-28T02:20:35.648Z,44.90
2018-07-28T02:23:03.913Z,44.20
2018-07-28T02:25:33.034Z,44.70
2018-07-28T02:28:01.171Z,45.10
2018-07-28T02:30:29.870Z,46.00
2018-07-28T02:32:58.707Z,45.00
2018-07-28T02:35:27.901Z,45.60
2018-07-28T02:37:56.109Z,45.40
2018-07-28T02:40:24.814Z,45.20
2018-07-28T02:42:53.260Z,45.10
2018-07-28T02:50:17.852Z,46.20
2018-07-28T02:52:45.367Z,46.30
2018-07-28T02:57:41.682Z,46.40
2018-07-28T03:02:40.367Z,46.90
2018-07-28T03:05:08.101Z,46.30
2018-07-28T03:10:05.704Z,47.00
2018-07-28T03:12:33.425Z,47.60
2018-07-28T03:15:02.054Z,47.70
2018-07-28T03:17:29.720Z,55.20
2018-07-28T03:19:57.963Z,53.30
2018-07-28T03:24:53.723Z,48.80
2018-07-28T03:27:21.333Z,49.40
2018-07-28T03:29:48.811Z,49.40
2018-07-28T03:34:43.805Z,49.40
2018-07-28T03:37:11.409Z,49.80
2018-07-28T03:39:38.981Z,49.80
2018-07-28T03:42:06.536Z,49.40
2018-07-28T03:44:34.160Z,49.50
2018-07-28T03:47:01.715Z,50.00
2018-07-28T03:51:56.815Z,49.70
2018-07-28T03:54:24.417Z,49.30
2018-07-28T03:56:52.123Z,49.20
2018-07-28T03:59:19.641Z,50.00
2018-07-28T04:01:47.645Z,50.00
2018-07-28T04:04:15.177Z,50.00
2018-07-28T04:06:44.072Z,50.30
2018-07-28T04:09:11.564Z,50.30
2018-07-28T04:11:39.128Z,51.00
2018-07-28T04:14:06.858Z,50.20
2018-07-28T04:19:01.791Z,49.60
2018-07-28T04:21:29.502Z,50.30
2018-07-28T04:23:57.119Z,50.30
2018-07-28T04:26:24.746Z,50.00
2018-07-28T04:28:52.659Z,50.10
2018-07-28T04:31:20.194Z,50.10
2018-07-28T04:33:47.730Z,50.50
2018-07-28T04:36:15.516Z,50.90
2018-07-28T04:38:43.010Z,50.90
2018-07-28T04:43:38.285Z,50.90
2018-07-28T04:46:05.840Z,50.60
2018-07-28T04:48:33.356Z,50.20
2018-07-28T04:53:28.402Z,49.60
2018-07-28T04:55:55.960Z,49.40
2018-07-28T04:58:23.477Z,50.20
2018-07-28T05:00:52.109Z,50.20
2018-07-28T05:03:19.619Z,50.40
2018-07-28T05:05:47.258Z,50.40
2018-07-28T05:08:14.864Z,50.50
2018-07-28T05:10:42.496Z,50.40
2018-07-28T05:13:10.017Z,50.40
2018-07-28T05:15:42.143Z,50.20
2018-07-28T05:18:15.735Z,50.40
2018-07-28T05:20:43.797Z,50.50
2018-07-28T05:23:11.317Z,50.50
2018-07-28T05:25:38.830Z,50.40
2018-07-28T05:30:33.992Z,50.40
2018-07-28T05:33:03.247Z,50.40
2018-07-28T05:37:58.372Z,50.50
2018-07-28T05:40:26.772Z,50.70
2018-07-28T05:42:54.432Z,50.70
2018-07-28T05:47:50.296Z,50.70
2018-07-28T05:50:17.886Z,50.20
2018-07-28T05:52:45.604Z,49.60
2018-07-28T06:00:08.155Z,48.70
2018-07-28T06:05:03.871Z,47.70
2018-07-28T06:07:31.618Z,49.30
2018-07-28T06:09:59.106Z,48.40
2018-07-28T06:12:26.706Z,47.00
2018-07-28T06:14:54.214Z,47.50
2018-07-28T06:17:21.804Z,46.80
2018-07-28T06:22:17.092Z,46.50
2018-07-28T06:24:44.769Z,46.30
2018-07-28T06:27:12.938Z,46.10
2018-07-28T06:29:41.155Z,47.60
2018-07-28T06:37:05.076Z,47.60
2018-07-28T06:39:32.552Z,47.30
2018-07-28T06:42:00.127Z,47.10
2018-07-28T06:44:28.228Z,48.20
2018-07-28T06:49:23.409Z,48.10
2018-07-28T06:51:51.178Z,47.90
2018-07-28T06:56:46.284Z,48.50
2018-07-28T06:59:13.791Z,49.00
2018-07-28T07:01:41.625Z,49.50
2018-07-28T07:04:09.186Z,49.30
2018-07-28T07:06:36.665Z,49.40
2018-07-28T07:09:08.847Z,50.30
2018-07-28T07:11:36.948Z,50.90
2018-07-28T07:14:04.500Z,50.80
2018-07-28T07:16:32.199Z,50.80
2018-07-28T07:19:01.240Z,50.80
2018-07-28T07:21:28.876Z,50.70
2018-07-28T07:23:56.378Z,50.60
2018-07-28T07:26:23.931Z,50.40
2018-07-28T07:28:52.372Z,50.60
2018-07-28T07:31:20.120Z,50.60
2018-07-28T07:33:47.698Z,50.60
2018-07-28T07:36:15.969Z,50.60
2018-07-28T07:38:43.528Z,50.60
2018-07-28T07:41:11.066Z,51.20
2018-07-28T07:43:38.638Z,50.60
2018-07-28T07:46:06.476Z,50.60
2018-07-28T07:48:34.203Z,50.50
2018-07-28T07:51:01.722Z,51.90
2018-07-28T07:53:31.371Z,53.70
2018-07-28T07:56:00.336Z,51.60
2018-07-28T08:00:56.144Z,53.60
2018-07-28T08:03:23.806Z,57.30
2018-07-28T08:08:22.707Z,58.10
2018-07-28T08:10:50.378Z,58.80
2018-07-28T08:13:17.965Z,61.20
2018-07-28T08:18:14.019Z,59.30
2018-07-28T08:20:42.378Z,59.70
2018-07-28T08:25:38.264Z,59.70
2018-07-28T08:30:34.354Z,62.10
2018-07-28T08:37:58.009Z,61.60
2018-07-28T08:40:27.464Z,61.30
2018-07-28T08:42:55.921Z,61.60
2018-07-28T08:47:51.227Z,61.90
2018-07-28T08:50:18.828Z,64.00
2018-07-28T08:52:46.357Z,62.40
2018-07-28T08:57:44.690Z,62.10
2018-07-28T09:00:12.330Z,63.50
2018-07-28T09:02:39.867Z,62.30
2018-07-28T09:05:13.522Z,62.70
2018-07-28T09:07:43.025Z,63.10
2018-07-28T09:10:10.882Z,61.70
2018-07-28T09:12:38.357Z,63.30
2018-07-28T09:17:34.268Z,61.50
2018-07-28T09:20:02.039Z,61.10
2018-07-28T09:22:29.684Z,60.80
2018-07-28T09:24:58.179Z,61.00
2018-07-28T09:27:26.455Z,61.00
2018-07-28T09:34:49.786Z,56.70
2018-07-28T09:37:17.347Z,57.50
2018-07-28T09:39:44.989Z,56.70
2018-07-28T09:42:12.537Z,57.10
2018-07-28T09:44:40.300Z,55.20
2018-07-28T09:47:07.954Z,54.30
2018-07-28T09:49:35.509Z,54.50
2018-07-28T09:52:03.674Z,53.60
2018-07-28T09:54:32.192Z,51.20
2018-07-28T09:56:59.992Z,51.00
2018-07-28T09:59:27.544Z,48.90
2018-07-28T10:01:55.578Z,47.70
2018-07-28T10:04:23.138Z,48.20
2018-07-28T10:06:51.440Z,47.70
2018-07-28T10:09:19.517Z,47.30
2018-07-28T10:11:47.749Z,44.00
2018-07-28T10:14:15.327Z,45.40
2018-07-28T10:16:44.018Z,44.10
2018-07-28T10:19:11.640Z,45.20
2018-07-28T10:21:39.183Z,47.70
2018-07-28T10:24:07.044Z,48.00
2018-07-28T10:26:35.556Z,48.00
2018-07-28T10:29:03.361Z,49.30
2018-07-28T10:31:30.896Z,47.60
2018-07-28T10:33:58.611Z,48.30
2018-07-28T10:36:26.218Z,49.20
2018-07-28T10:38:53.865Z,49.60
2018-07-28T10:46:19.475Z,50.10
2018-07-28T10:48:47.789Z,48.70
2018-07-28T10:51:15.521Z,47.70
2018-07-28T10:53:43.095Z,47.30
2018-07-28T10:56:10.845Z,47.80
2018-07-28T10:58:39.056Z,46.90
2018-07-28T11:03:34.327Z,44.00
2018-07-28T11:06:01.963Z,43.60
2018-07-28T11:08:30.257Z,44.20
2018-07-28T11:10:57.833Z,42.30
2018-07-28T11:13:26.130Z,41.60
2018-07-28T11:15:54.255Z,42.80
2018-07-28T11:18:21.794Z,43.40
2018-07-28T11:20:49.668Z,42.50
2018-07-28T11:23:28.801Z,41.40
2018-07-28T11:25:57.016Z,42.50
2018-07-28T11:28:24.664Z,42.40
2018-07-28T11:33:36.379Z,41.20
2018-07-28T11:36:15.336Z,38.90
2018-07-28T11:38:54.430Z,39.90
2018-07-28T11:41:33.530Z,38.30
2018-07-28T11:44:13.179Z,36.80
2018-07-28T11:46:40.876Z,37.20
2018-07-28T11:49:08.712Z,37.70
2018-07-28T11:51:36.231Z,37.70
2018-07-28T11:54:03.886Z,38.10
2018-07-28T11:56:31.591Z,37.10
2018-07-28T11:58:59.265Z,37.20
2018-07-28T12:03:54.475Z,37.20
2018-07-28T12:08:49.801Z,36.40
2018-07-28T12:11:18.520Z,35.80
2018-07-28T12:13:46.369Z,36.00
2018-07-28T12:16:14.582Z,36.00
2018-07-28T12:18:42.184Z,35.80
2018-07-28T12:23:38.324Z,37.50
2018-07-28T12:26:06.704Z,37.90
2018-07-28T12:28:34.295Z,39.00
2018-07-28T12:35:58.174Z,39.20
2018-07-28T12:40:54.586Z,40.30
2018-07-28T12:43:22.900Z,40.20
2018-07-28T12:48:18.181Z,40.70
2018-07-28T12:50:45.816Z,41.20
2018-07-28T12:53:13.601Z,41.10
2018-07-28T12:55:41.921Z,41.60
2018-07-28T13:03:08.590Z,42.00
2018-07-28T13:05:36.748Z,42.90
2018-07-28T13:08:04.632Z,44.00
2018-07-28T13:13:00.880Z,42.80
2018-07-28T13:15:29.791Z,42.20
2018-07-28T13:17:57.518Z,42.60
2018-07-28T13:20:25.246Z,43.10
2018-07-28T13:22:52.996Z,42.90
2018-07-28T13:35:11.134Z,46.10
2018-07-28T13:40:06.331Z,48.80
2018-07-28T13:42:34.079Z,50.10
2018-07-28T13:54:46.705Z,52.70
2018-07-28T13:57:14.344Z,52.90
2018-07-28T13:59:42.073Z,56.20
2018-07-28T14:02:11.559Z,57.30
2018-07-28T14:04:39.526Z,59.30
2018-07-28T14:07:07.445Z,60.00
2018-07-28T14:09:35.226Z,60.70
2018-07-28T14:12:02.841Z,60.90
2018-07-28T14:14:31.180Z,62.20
2018-07-28T14:16:58.782Z,62.40
2018-07-28T14:19:26.979Z,63.80
2018-07-28T14:21:54.571Z,62.40
2018-07-28T14:24:22.104Z,63.60
2018-07-28T14:26:49.795Z,63.80
2018-07-28T14:29:18.171Z,64.40
2018-07-28T14:31:45.833Z,63.60
2018-07-28T14:34:15.182Z,65.40
2018-07-28T14:36:42.756Z,64.30
2018-07-28T14:39:11.241Z,64.60
2018-07-28T14:41:39.552Z,63.10
2018-07-28T14:44:07.207Z,64.80
2018-07-28T14:46:35.481Z,64.40
2018-07-28T14:49:03.359Z,63.90
2018-07-28T14:51:31.595Z,63.50
2018-07-28T14:53:59.246Z,62.30
2018-07-28T14:56:26.828Z,63.00
2018-07-28T14:58:55.217Z,63.00
2018-07-28T15:01:23.033Z,64.20
2018-07-28T15:03:50.524Z,63.70
2018-07-28T15:06:18.398Z,65.20
2018-07-28T15:08:46.572Z,64.20
2018-07-28T15:11:14.149Z,64.00
2018-07-28T15:16:09.865Z,64.10
2018-07-28T15:18:37.894Z,63.40
2018-07-28T15:21:06.090Z,62.80
2018-07-28T15:23:34.291Z,60.50
2018-07-28T15:26:02.031Z,61.30
2018-07-28T15:28:29.590Z,62.30
2018-07-28T15:30:57.270Z,60.00
2018-07-28T15:33:24.951Z,58.70
2018-07-28T15:35:53.537Z,58.30
2018-07-28T15:38:22.259Z,56.20
2018-07-28T15:40:50.648Z,56.30
2018-07-28T15:43:18.147Z,55.20
2018-07-28T15:48:13.407Z,52.10
2018-07-28T15:50:41.105Z,52.80
2018-07-28T15:55:36.286Z,52.00
2018-07-28T15:58:04.697Z,50.50
2018-07-28T16:00:32.517Z,52.00
2018-07-28T16:03:00.743Z,52.00
2018-07-28T16:05:28.336Z,49.70
2018-07-28T16:07:58.142Z,49.30
2018-07-28T16:10:25.788Z,49.40
2018-07-28T16:12:53.556Z,49.30
2018-07-28T16:15:21.459Z,48.20
2018-07-28T16:17:49.756Z,49.00
2018-07-28T16:22:46.758Z,50.20
2018-07-28T16:25:14.397Z,51.00
2018-07-28T16:27:42.046Z,50.90
2018-07-28T16:30:10.507Z,50.80
2018-07-28T16:32:39.001Z,47.20
2018-07-28T16:35:06.980Z,46.10
2018-07-28T16:37:34.530Z,46.00
2018-07-28T16:40:02.157Z,44.10
2018-07-28T16:42:29.904Z,44.30
2018-07-28T16:47:25.021Z,45.10
2018-07-28T16:49:53.502Z,43.50
2018-07-28T16:52:21.179Z,43.70
2018-07-28T16:54:48.718Z,44.20
2018-07-28T16:57:16.403Z,44.40
2018-07-28T16:59:44.094Z,44.20
2018-07-28T17:04:39.431Z,44.70
2018-07-28T17:07:06.997Z,44.60
2018-07-28T17:09:34.499Z,43.90
2018-07-28T17:14:30.486Z,43.70
2018-07-28T17:16:58.095Z,44.60
2018-07-28T17:19:25.668Z,44.40
2018-07-28T17:21:53.432Z,43.50
2018-07-28T17:24:21.409Z,44.20
2018-07-28T17:26:48.897Z,44.20
2018-07-28T17:29:16.538Z,44.70
2018-07-28T17:31:44.322Z,43.90
2018-07-28T17:34:12.560Z,43.40
2018-07-28T17:36:40.773Z,43.50
2018-07-28T17:39:09.155Z,43.40
2018-07-28T17:41:36.775Z,43.40
2018-07-28T17:44:04.832Z,44.30
2018-07-28T17:46:33.165Z,43.40
2018-07-28T17:49:00.935Z,43.90
2018-07-28T17:51:28.684Z,43.30
2018-07-28T17:53:56.757Z,43.70
2018-07-28T17:56:24.428Z,44.00
2018-07-28T17:58:52.204Z,43.30
2018-07-28T18:01:19.904Z,43.30
2018-07-28T18:03:47.457Z,43.90
2018-07-28T18:06:15.671Z,43.80
2018-07-28T18:08:43.765Z,43.20
2018-07-28T18:13:39.019Z,43.10
2018-07-28T18:16:06.677Z,43.10
2018-07-28T18:18:34.234Z,43.00
2018-07-28T18:21:01.941Z,43.00
2018-07-28T18:23:29.510Z,43.50
2018-07-28T18:25:57.366Z,43.40
2018-07-28T18:28:24.998Z,44.00
2018-07-28T18:30:52.661Z,44.00
2018-07-28T18:33:20.800Z,45.30
2018-07-28T18:35:49.180Z,45.10
2018-07-28T18:38:17.662Z,45.50
2018-07-28T18:40:45.950Z,45.20
2018-07-28T18:45:41.609Z,45.30
2018-07-28T18:48:09.555Z,45.10
2018-07-28T18:50:38.357Z,45.80
2018-07-28T18:53:06.205Z,45.20
2018-07-28T18:58:04.324Z,45.60
2018-07-28T19:00:34.856Z,46.30
2018-07-28T19:03:02.582Z,45.40
2018-07-28T19:05:30.307Z,45.40
2018-07-28T19:07:59.436Z,45.10
2018-07-28T19:10:27.753Z,45.70
2018-07-28T19:13:01.089Z,45.00
2018-07-28T19:15:29.184Z,45.50
2018-07-28T19:18:02.529Z,45.60
2018-07-28T19:20:30.791Z,44.80
2018-07-28T19:23:04.269Z,44.90
2018-07-28T19:25:32.799Z,41.80
2018-07-28T19:28:06.029Z,44.20
2018-07-28T19:30:33.592Z,45.10
2018-07-28T19:33:01.131Z,45.70
2018-07-28T19:35:35.225Z,45.20
2018-07-28T19:38:02.883Z,44.50
2018-07-28T19:40:30.488Z,44.60
2018-07-28T19:42:58.096Z,45.00
2018-07-28T19:45:25.840Z,45.10
2018-07-28T19:47:53.494Z,45.30
2018-07-28T19:50:21.177Z,45.50
2018-07-28T19:52:49.352Z,45.90
2018-07-28T19:55:17.718Z,45.80
2018-07-28T19:57:45.745Z,45.60
2018-07-28T20:00:13.877Z,45.50
2018-07-28T20:02:42.369Z,45.70
2018-07-28T20:05:11.411Z,46.10
2018-07-28T20:10:07.582Z,46.00
2018-07-28T20:12:37.588Z,46.50
2018-07-28T20:15:05.451Z,46.30
2018-07-28T20:17:35.821Z,46.30
2018-07-28T20:20:04.078Z,46.30
2018-07-28T20:22:41.388Z,46.40
2018-07-28T20:25:09.375Z,46.00
2018-07-28T20:27:37.254Z,45.90
2018-07-28T20:30:05.434Z,45.80
2018-07-28T20:35:02.172Z,46.30
2018-07-28T20:47:19.824Z,47.40
2018-07-28T20:49:50.345Z,47.00
2018-07-28T20:52:20.888Z,47.60
2018-07-28T20:54:49.891Z,47.50
2018-07-28T20:57:18.134Z,48.20
2018-07-28T20:59:46.410Z,49.00
2018-07-28T21:04:41.541Z,48.40
2018-07-28T21:07:09.545Z,49.00
2018-07-28T21:09:38.378Z,49.30
2018-07-28T21:12:07.435Z,49.30
2018-07-28T21:14:35.372Z,50.00
2018-07-28T21:17:03.513Z,49.90
2018-07-28T21:19:32.766Z,49.90
2018-07-28T21:22:01.477Z,49.90
2018-07-28T21:24:29.415Z,49.10
2018-07-28T21:26:58.020Z,49.00
2018-07-28T21:29:26.864Z,50.00
2018-07-28T21:31:56.202Z,50.00
2018-07-28T21:34:23.845Z,49.90
2018-07-28T21:36:51.655Z,50.00
2018-07-28T21:39:20.853Z,50.00
2018-07-28T21:41:48.817Z,49.80
2018-07-28T21:44:16.472Z,50.30
2018-07-28T21:46:44.291Z,50.60
2018-07-28T21:49:11.985Z,50.40
2018-07-28T21:51:39.718Z,50.90
2018-07-28T21:54:07.533Z,50.90
2018-07-28T21:56:35.137Z,50.80
2018-07-28T21:59:03.424Z,51.40
2018-07-28T22:01:32.223Z,51.40
2018-07-28T22:04:01.850Z,51.70
2018-07-28T22:06:30.651Z,52.40
2018-07-28T22:08:59.060Z,52.40
2018-07-28T22:11:27.596Z,52.70
2018-07-28T22:13:56.670Z,52.10
2018-07-28T22:16:25.640Z,52.90
2018-07-28T22:18:53.998Z,53.10
2018-07-28T22:21:24.902Z,52.20
2018-07-28T22:26:21.793Z,53.10
2018-07-28T22:28:50.586Z,53.10
2018-07-28T22:31:18.208Z,53.40
2018-07-28T22:36:13.345Z,53.10
2018-07-28T22:38:40.844Z,52.40
2018-07-28T22:41:08.395Z,52.60
2018-07-28T22:43:35.941Z,53.20
2018-07-28T22:46:03.866Z,52.50
2018-07-28T22:48:33.143Z,52.90
2018-07-28T22:51:00.657Z,52.50
2018-07-28T22:53:28.213Z,53.30
2018-07-28T22:55:56.521Z,53.80
2018-07-28T22:58:24.113Z,52.70
2018-07-28T23:00:51.854Z,52.50
2018-07-28T23:03:19.894Z,52.90
2018-07-28T23:05:47.553Z,53.30
2018-07-28T23:08:15.247Z,53.30
2018-07-28T23:10:42.808Z,53.40
2018-07-28T23:13:10.420Z,54.00
2018-07-28T23:15:38.509Z,53.30
2018-07-28T23:18:06.249Z,53.20
2018-07-28T23:20:33.908Z,53.10
2018-07-28T23:23:01.491Z,54.00
2018-07-28T23:25:29.250Z,54.80
2018-07-28T23:27:57.017Z,54.00
2018-07-28T23:30:25.684Z,54.50
2018-07-28T23:32:53.763Z,54.30
2018-07-28T23:35:21.918Z,55.10
2018-07-28T23:37:50.050Z,54.70
2018-07-28T23:40:17.768Z,55.10
2018-07-28T23:42:45.418Z,54.40
2018-07-28T23:45:13.148Z,53.60
2018-07-28T23:47:41.343Z,54.30
2018-07-28T23:50:08.866Z,54.10
2018-07-28T23:52:36.408Z,54.30
2018-07-28T23:55:05.184Z,54.60
2018-07-28T23:57:33.392Z,54.20
